sensor_id;sensor_type;location;lat;lon;timestamp;pressure;altitude;pressure_sealevel;temperature;humidity
25430;BME280;13360;48.152;-1.788;2022-08-23T00:01:16;103469.00;;;22.26;100.00
25430;BME280;13360;48.152;-1.788;2022-08-23T00:03:42;103475.75;;;22.25;100.00
25430;BME280;13360;48.152;-1.788;2022-08-23T00:06:09;103490.16;;;22.23;100.00
25430;BME280;13360;48.152;-1.788;2022-08-23T00:08:35;103498.28;;;22.25;100.00
25430;BME280;13360;48.152;-1.788;2022-08-23T00:11:00;103507.03;;;22.23;100.00
25430;BME280;13360;48.152;-1.788;2022-08-23T00:13:26;103499.44;;;22.24;100.00
25430;BME280;13360;48.152;-1.788;2022-08-23T00:15:53;103511.63;;;22.19;100.00
25430;BME280;13360;48.152;-1.788;2022-08-23T00:18:18;103522.28;;;22.22;100.00
25430;BME280;13360;48.152;-1.788;2022-08-23T00:20:45;103534.88;;;22.25;100.00
25430;BME280;13360;48.152;-1.788;2022-08-23T00:23:10;103545.31;;;22.24;100.00
25430;BME280;13360;48.152;-1.788;2022-08-23T00:25:36;103549.78;;;22.25;100.00
25430;BME280;13360;48.152;-1.788;2022-08-23T00:28:02;103552.63;;;22.25;100.00
25430;BME280;13360;48.152;-1.788;2022-08-23T00:30:27;103563.03;;;22.25;100.00
25430;BME280;13360;48.152;-1.788;2022-08-23T00:32:52;103563.34;;;22.23;100.00
25430;BME280;13360;48.152;-1.788;2022-08-23T00:35:18;103563.03;;;22.25;100.00
25430;BME280;13360;48.152;-1.788;2022-08-23T00:37:45;103559.50;;;22.19;100.00
25430;BME280;13360;48.152;-1.788;2022-08-23T00:40:13;103577.53;;;22.18;100.00
25430;BME280;13360;48.152;-1.788;2022-08-23T00:42:47;103579.50;;;22.17;100.00
25430;BME280;13360;48.152;-1.788;2022-08-23T00:46:00;103579.81;;;22.16;100.00
25430;BME280;13360;48.152;-1.788;2022-08-23T00:48:46;103576.16;;;22.15;100.00
25430;BME280;13360;48.152;-1.788;2022-08-23T00:51:20;103580.97;;;22.15;100.00
25430;BME280;13360;48.152;-1.788;2022-08-23T00:53:53;103590.84;;;22.12;100.00
25430;BME280;13360;48.152;-1.788;2022-08-23T00:56:22;103593.69;;;22.12;100.00
25430;BME280;13360;48.152;-1.788;2022-08-23T00:58:49;103604.09;;;22.12;100.00
25430;BME280;13360;48.152;-1.788;2022-08-23T01:01:15;103598.47;;;22.12;100.00
25430;BME280;13360;48.152;-1.788;2022-08-23T01:03:42;103597.63;;;22.11;100.00
25430;BME280;13360;48.152;-1.788;2022-08-23T01:06:13;103606.06;;;22.11;100.00
25430;BME280;13360;48.152;-1.788;2022-08-23T01:08:42;103603.03;;;22.08;100.00
25430;BME280;13360;48.152;-1.788;2022-08-23T01:11:23;103608.38;;;22.09;100.00
25430;BME280;13360;48.152;-1.788;2022-08-23T01:14:00;103612.31;;;22.08;100.00
25430;BME280;13360;48.152;-1.788;2022-08-23T01:17:21;103613.16;;;22.09;100.00
25430;BME280;13360;48.152;-1.788;2022-08-23T01:19:34;103617.13;;;22.08;100.00
25430;BME280;13360;48.152;-1.788;2022-08-23T01:22:13;103617.13;;;22.08;100.00
25430;BME280;13360;48.152;-1.788;2022-08-23T01:24:42;103621.59;;;22.09;100.00
25430;BME280;13360;48.152;-1.788;2022-08-23T01:27:10;103615.97;;;22.09;100.00
25430;BME280;13360;48.152;-1.788;2022-08-23T01:29:37;103636.81;;;22.08;100.00
25430;BME280;13360;48.152;-1.788;2022-08-23T01:32:03;103628.66;;;22.06;100.00
25430;BME280;13360;48.152;-1.788;2022-08-23T01:34:29;103623.03;;;22.06;100.00
25430;BME280;13360;48.152;-1.788;2022-08-23T01:36:55;103632.63;;;22.05;100.00
25430;BME280;13360;48.152;-1.788;2022-08-23T01:39:22;103633.75;;;22.04;100.00
25430;BME280;13360;48.152;-1.788;2022-08-23T01:41:47;103638.00;;;22.02;100.00
25430;BME280;13360;48.152;-1.788;2022-08-23T01:44:13;103635.19;;;22.02;100.00
25430;BME280;13360;48.152;-1.788;2022-08-23T01:46:42;103642.78;;;22.01;100.00
25430;BME280;13360;48.152;-1.788;2022-08-23T01:49:08;103645.06;;;21.99;100.00
25430;BME280;13360;48.152;-1.788;2022-08-23T01:51:33;103647.34;;;21.97;100.00
25430;BME280;13360;48.152;-1.788;2022-08-23T01:53:59;103652.97;;;21.97;100.00
25430;BME280;13360;48.152;-1.788;2022-08-23T01:56:24;103653.81;;;21.98;100.00
25430;BME280;13360;48.152;-1.788;2022-08-23T01:58:50;103664.84;;;21.94;100.00
25430;BME280;13360;48.152;-1.788;2022-08-23T02:01:17;103665.69;;;21.95;100.00
25430;BME280;13360;48.152;-1.788;2022-08-23T02:03:43;103669.34;;;21.95;100.00
25430;BME280;13360;48.152;-1.788;2022-08-23T02:06:10;103666.53;;;21.95;100.00
25430;BME280;13360;48.152;-1.788;2022-08-23T02:08:36;103676.09;;;21.94;100.00
25430;BME280;13360;48.152;-1.788;2022-08-23T02:11:21;103675.28;;;21.94;100.00
25430;BME280;13360;48.152;-1.788;2022-08-23T02:13:48;103678.41;;;21.92;100.00
25430;BME280;13360;48.152;-1.788;2022-08-23T02:16:27;103677.03;;;21.89;100.00
25430;BME280;13360;48.152;-1.788;2022-08-23T02:18:54;103677.03;;;21.89;100.00
25430;BME280;13360;48.152;-1.788;2022-08-23T02:21:20;103676.19;;;21.89;100.00
25430;BME280;13360;48.152;-1.788;2022-08-23T02:23:46;103686.91;;;21.87;100.00
25430;BME280;13360;48.152;-1.788;2022-08-23T02:26:13;103691.97;;;21.85;100.00
25430;BME280;13360;48.152;-1.788;2022-08-23T02:28:39;103700.41;;;21.85;100.00
25430;BME280;13360;48.152;-1.788;2022-08-23T02:31:04;103706.03;;;21.85;100.00
25430;BME280;13360;48.152;-1.788;2022-08-23T02:33:30;103703.22;;;21.85;100.00
25430;BME280;13360;48.152;-1.788;2022-08-23T02:35:55;103708.03;;;21.84;100.00
25430;BME280;13360;48.152;-1.788;2022-08-23T02:38:20;103712.50;;;21.85;100.00
25430;BME280;13360;48.152;-1.788;2022-08-23T02:40:46;103707.50;;;21.82;100.00
25430;BME280;13360;48.152;-1.788;2022-08-23T02:43:12;103702.09;;;21.86;100.00
25430;BME280;13360;48.152;-1.788;2022-08-23T02:45:38;103702.09;;;21.86;100.00
25430;BME280;13360;48.152;-1.788;2022-08-23T02:48:05;103695.63;;;21.85;100.00
25430;BME280;13360;48.152;-1.788;2022-08-23T02:50:30;103704.63;;;21.87;100.00
25430;BME280;13360;48.152;-1.788;2022-08-23T02:52:57;103703.81;;;21.87;100.00
25430;BME280;13360;48.152;-1.788;2022-08-23T02:55:22;103702.41;;;21.84;100.00
25430;BME280;13360;48.152;-1.788;2022-08-23T02:57:48;103692.28;;;21.83;100.00
25430;BME280;13360;48.152;-1.788;2022-08-23T03:00:15;103683.63;;;21.80;100.00
25430;BME280;13360;48.152;-1.788;2022-08-23T03:02:41;103681.09;;;21.78;100.00
25430;BME280;13360;48.152;-1.788;2022-08-23T03:05:07;103676.63;;;21.77;100.00
25430;BME280;13360;48.152;-1.788;2022-08-23T03:07:33;103691.84;;;21.76;100.00
25430;BME280;13360;48.152;-1.788;2022-08-23T03:09:58;103695.25;;;21.73;100.00
25430;BME280;13360;48.152;-1.788;2022-08-23T03:12:24;103702.84;;;21.73;100.00
25430;BME280;13360;48.152;-1.788;2022-08-23T03:14:51;103709.94;;;21.70;100.00
25430;BME280;13360;48.152;-1.788;2022-08-23T03:17:17;103711.91;;;21.70;100.00
25430;BME280;13360;48.152;-1.788;2022-08-23T03:19:43;103720.03;;;21.71;100.00
25430;BME280;13360;48.152;-1.788;2022-08-23T03:22:08;103736.31;;;21.74;100.00
25430;BME280;13360;48.152;-1.788;2022-08-23T03:24:34;103739.72;;;21.71;100.00
25430;BME280;13360;48.152;-1.788;2022-08-23T03:27:00;103741.41;;;21.72;100.00
25430;BME280;13360;48.152;-1.788;2022-08-23T03:29:26;103752.66;;;21.72;100.00
25430;BME280;13360;48.152;-1.788;2022-08-23T03:31:51;103766.19;;;21.70;100.00
25430;BME280;13360;48.152;-1.788;2022-08-23T03:34:17;103768.16;;;21.70;100.00
25430;BME280;13360;48.152;-1.788;2022-08-23T03:36:42;103771.59;;;21.67;100.00
25430;BME280;13360;48.152;-1.788;2022-08-23T03:39:07;103774.41;;;21.67;100.00
25430;BME280;13360;48.152;-1.788;2022-08-23T03:41:33;103779.72;;;21.68;100.00
25430;BME280;13360;48.152;-1.788;2022-08-23T03:43:58;103787.84;;;21.70;100.00
25430;BME280;13360;48.152;-1.788;2022-08-23T03:46:23;103789.84;;;21.69;100.00
25430;BME280;13360;48.152;-1.788;2022-08-23T03:48:55;103792.13;;;21.67;100.00
25430;BME280;13360;48.152;-1.788;2022-08-23T03:51:21;103796.06;;;21.66;100.00
25430;BME280;13360;48.152;-1.788;2022-08-23T03:53:47;103812.66;;;21.68;100.00
25430;BME280;13360;48.152;-1.788;2022-08-23T03:56:34;103815.44;;;21.68;100.00
25430;BME280;13360;48.152;-1.788;2022-08-23T03:59:04;103810.97;;;21.67;100.00
25430;BME280;13360;48.152;-1.788;2022-08-23T04:01:30;103820.53;;;21.66;100.00
25430;BME280;13360;48.152;-1.788;2022-08-23T04:03:55;103825.31;;;21.65;100.00
25430;BME280;13360;48.152;-1.788;2022-08-23T04:06:24;103828.13;;;21.65;100.00
25430;BME280;13360;48.152;-1.788;2022-08-23T04:08:51;103828.41;;;21.64;100.00
25430;BME280;13360;48.152;-1.788;2022-08-23T04:11:19;103831.22;;;21.64;100.00
25430;BME280;13360;48.152;-1.788;2022-08-23T04:13:44;103840.81;;;21.63;100.00
25430;BME280;13360;48.152;-1.788;2022-08-23T04:16:10;103840.81;;;21.63;100.00
25430;BME280;13360;48.152;-1.788;2022-08-23T04:18:35;103841.94;;;21.61;100.00
25430;BME280;13360;48.152;-1.788;2022-08-23T04:21:04;103863.59;;;21.61;100.00
25430;BME280;13360;48.152;-1.788;2022-08-23T04:23:30;103857.97;;;21.61;100.00
25430;BME280;13360;48.152;-1.788;2022-08-23T04:25:56;103868.09;;;21.62;100.00
25430;BME280;13360;48.152;-1.788;2022-08-23T04:28:22;103871.22;;;21.60;100.00
25430;BME280;13360;48.152;-1.788;2022-08-23T04:30:49;103876.53;;;21.62;100.00
25430;BME280;13360;48.152;-1.788;2022-08-23T04:33:16;103866.41;;;21.61;100.00
25430;BME280;13360;48.152;-1.788;2022-08-23T04:35:41;103882.75;;;21.59;100.00
25430;BME280;13360;48.152;-1.788;2022-08-23T04:38:06;103886.09;;;21.61;100.00
25430;BME280;13360;48.152;-1.788;2022-08-23T04:40:32;103892.34;;;21.58;100.00
25430;BME280;13360;48.152;-1.788;2022-08-23T04:43:16;103894.59;;;21.56;100.00
25430;BME280;13360;48.152;-1.788;2022-08-23T04:45:42;103905.84;;;21.56;100.00
25430;BME280;13360;48.152;-1.788;2022-08-23T04:48:07;103914.28;;;21.56;100.00
25430;BME280;13360;48.152;-1.788;2022-08-23T04:50:34;103928.34;;;21.56;100.00
25430;BME280;13360;48.152;-1.788;2022-08-23T04:52:59;103942.13;;;21.57;100.00
25430;BME280;13360;48.152;-1.788;2022-08-23T04:55:24;103939.31;;;21.57;100.00
25430;BME280;13360;48.152;-1.788;2022-08-23T04:57:50;103938.47;;;21.57;100.00
25430;BME280;13360;48.152;-1.788;2022-08-23T05:00:15;103948.59;;;21.58;100.00
25430;BME280;13360;48.152;-1.788;2022-08-23T05:02:41;103951.69;;;21.56;100.00
25430;BME280;13360;48.152;-1.788;2022-08-23T05:05:09;103953.66;;;21.56;100.00
25430;BME280;13360;48.152;-1.788;2022-08-23T05:07:36;103967.75;;;21.56;100.00
25430;BME280;13360;48.152;-1.788;2022-08-23T05:10:03;103971.69;;;21.55;100.00
25430;BME280;13360;48.152;-1.788;2022-08-23T05:12:29;103975.94;;;21.52;100.00
25430;BME280;13360;48.152;-1.788;2022-08-23T05:14:55;103977.59;;;21.53;100.00
25430;BME280;13360;48.152;-1.788;2022-08-23T05:17:20;103986.88;;;21.54;100.00
25430;BME280;13360;48.152;-1.788;2022-08-23T05:19:46;103985.19;;;21.53;100.00
25430;BME280;13360;48.152;-1.788;2022-08-23T05:22:11;103990.34;;;21.46;100.00
25430;BME280;13360;48.152;-1.788;2022-08-23T05:24:36;104001.00;;;21.44;100.00
25430;BME280;13360;48.152;-1.788;2022-08-23T05:27:02;104003.81;;;21.44;100.00
25430;BME280;13360;48.152;-1.788;2022-08-23T05:29:27;104021.53;;;21.44;100.00
25430;BME280;13360;48.152;-1.788;2022-08-23T05:31:53;104028.03;;;21.45;100.00
25430;BME280;13360;48.152;-1.788;2022-08-23T05:34:18;104027.50;;;21.38;100.00
25430;BME280;13360;48.152;-1.788;2022-08-23T05:36:44;104033.66;;;21.45;100.00
25430;BME280;13360;48.152;-1.788;2022-08-23T05:39:09;104035.31;;;21.46;100.00
25430;BME280;13360;48.152;-1.788;2022-08-23T05:41:35;104045.44;;;21.47;100.00
25430;BME280;13360;48.152;-1.788;2022-08-23T05:44:01;104051.63;;;21.49;100.00
25430;BME280;13360;48.152;-1.788;2022-08-23T05:46:26;104047.66;;;21.50;100.00
25430;BME280;13360;48.152;-1.788;2022-08-23T05:48:51;104056.94;;;21.50;100.00
25430;BME280;13360;48.152;-1.788;2022-08-23T05:51:26;104063.97;;;21.53;100.00
25430;BME280;13360;48.152;-1.788;2022-08-23T05:53:52;104053.84;;;21.52;100.00
25430;BME280;13360;48.152;-1.788;2022-08-23T05:56:24;104064.22;;;21.56;100.00
25430;BME280;13360;48.152;-1.788;2022-08-23T05:58:52;104066.97;;;21.61;100.00
25430;BME280;13360;48.152;-1.788;2022-08-23T06:01:19;104057.41;;;21.63;100.00
25430;BME280;13360;48.152;-1.788;2022-08-23T06:03:45;104050.09;;;21.61;100.00
25430;BME280;13360;48.152;-1.788;2022-08-23T06:06:12;104044.22;;;21.58;100.00
25430;BME280;13360;48.152;-1.788;2022-08-23T06:08:37;104031.34;;;21.52;100.00
25430;BME280;13360;48.152;-1.788;2022-08-23T06:11:25;104034.75;;;21.49;100.00
25430;BME280;13360;48.152;-1.788;2022-08-23T06:14:02;104037.00;;;21.47;100.00
25430;BME280;13360;48.152;-1.788;2022-08-23T06:16:30;104037.00;;;21.47;100.00
25430;BME280;13360;48.152;-1.788;2022-08-23T06:18:57;104054.13;;;21.50;100.00
25430;BME280;13360;48.152;-1.788;2022-08-23T06:21:24;104060.00;;;21.54;100.00
25430;BME280;13360;48.152;-1.788;2022-08-23T06:23:50;104066.19;;;21.56;100.00
25430;BME280;13360;48.152;-1.788;2022-08-23T06:26:20;104064.50;;;21.55;100.00
25430;BME280;13360;48.152;-1.788;2022-08-23T06:28:48;104051.03;;;21.52;100.00
25430;BME280;13360;48.152;-1.788;2022-08-23T06:31:14;104055.28;;;21.49;100.00
25430;BME280;13360;48.152;-1.788;2022-08-23T06:33:41;104063.13;;;21.52;100.00
25430;BME280;13360;48.152;-1.788;2022-08-23T06:36:11;104052.72;;;21.53;100.00
25430;BME280;13360;48.152;-1.788;2022-08-23T06:38:41;104056.09;;;21.50;100.00
25430;BME280;13360;48.152;-1.788;2022-08-23T06:41:10;104083.66;;;21.53;100.00
25430;BME280;13360;48.152;-1.788;2022-08-23T06:43:37;104113.38;;;21.64;100.00
25430;BME280;13360;48.152;-1.788;2022-08-23T06:46:23;104135.00;;;21.74;100.00
25430;BME280;13360;48.152;-1.788;2022-08-23T06:48:49;104062.13;;;21.72;100.00
25430;BME280;13360;48.152;-1.788;2022-08-23T06:51:27;104018.69;;;21.83;100.00
25430;BME280;13360;48.152;-1.788;2022-08-23T06:53:54;104015.34;;;21.81;100.00
25430;BME280;13360;48.152;-1.788;2022-08-23T06:56:24;104014.19;;;21.87;100.00
25430;BME280;13360;48.152;-1.788;2022-08-23T06:58:51;104011.31;;;21.92;100.00
25430;BME280;13360;48.152;-1.788;2022-08-23T07:01:24;104004.00;;;21.91;100.00
25430;BME280;13360;48.152;-1.788;2022-08-23T07:03:55;104006.22;;;21.95;100.00
25430;BME280;13360;48.152;-1.788;2022-08-23T07:06:22;103985.69;;;21.94;100.00
25430;BME280;13360;48.152;-1.788;2022-08-23T07:08:48;103960.34;;;21.94;100.00
25430;BME280;13360;48.152;-1.788;2022-08-23T07:11:14;103943.75;;;21.92;100.00
25430;BME280;13360;48.152;-1.788;2022-08-23T07:13:39;103934.19;;;21.94;100.00
25430;BME280;13360;48.152;-1.788;2022-08-23T07:16:05;103946.75;;;22.01;100.00
25430;BME280;13360;48.152;-1.788;2022-08-23T07:18:30;103955.69;;;22.13;100.00
25430;BME280;13360;48.152;-1.788;2022-08-23T07:20:58;103946.22;;;22.28;100.00
25430;BME280;13360;48.152;-1.788;2022-08-23T07:23:24;103944.03;;;22.44;100.00
25430;BME280;13360;48.152;-1.788;2022-08-23T07:25:50;103921.19;;;22.45;100.00
25430;BME280;13360;48.152;-1.788;2022-08-23T07:28:16;103867.16;;;22.43;100.00
25430;BME280;13360;48.152;-1.788;2022-08-23T07:30:41;103837.84;;;22.44;100.00
25430;BME280;13360;48.152;-1.788;2022-08-23T07:33:06;103799.03;;;22.41;100.00
25430;BME280;13360;48.152;-1.788;2022-08-23T07:35:32;103773.69;;;22.41;100.00
25430;BME280;13360;48.152;-1.788;2022-08-23T07:37:58;103765.22;;;22.41;100.00
25430;BME280;13360;48.152;-1.788;2022-08-23T07:40:23;103741.03;;;22.40;100.00
25430;BME280;13360;48.152;-1.788;2022-08-23T07:42:49;103718.19;;;22.42;100.00
25430;BME280;13360;48.152;-1.788;2022-08-23T07:45:14;103714.69;;;22.50;100.00
25430;BME280;13360;48.152;-1.788;2022-08-23T07:47:39;103709.81;;;22.56;100.00
25430;BME280;13360;48.152;-1.788;2022-08-23T07:50:07;103700.66;;;22.64;100.00
25430;BME280;13360;48.152;-1.788;2022-08-23T07:52:32;103683.94;;;22.67;100.00
25430;BME280;13360;48.152;-1.788;2022-08-23T07:54:58;103673.75;;;22.71;100.00
25430;BME280;13360;48.152;-1.788;2022-08-23T07:57:25;103657.28;;;22.78;100.00
25430;BME280;13360;48.152;-1.788;2022-08-23T07:59:51;103641.00;;;22.75;100.00
25430;BME280;13360;48.152;-1.788;2022-08-23T08:02:16;103612.72;;;22.80;100.00
25430;BME280;13360;48.152;-1.788;2022-08-23T08:04:42;103595.66;;;22.91;100.00
25430;BME280;13360;48.152;-1.788;2022-08-23T08:07:08;103572.16;;;22.95;100.00
25430;BME280;13360;48.152;-1.788;2022-08-23T08:09:33;103541.34;;;22.99;100.00
25430;BME280;13360;48.152;-1.788;2022-08-23T08:11:59;103520.16;;;23.01;100.00
25430;BME280;13360;48.152;-1.788;2022-08-23T08:14:24;103492.81;;;23.02;100.00
25430;BME280;13360;48.152;-1.788;2022-08-23T08:16:49;103464.94;;;23.00;100.00
25430;BME280;13360;48.152;-1.788;2022-08-23T08:19:17;103469.63;;;23.05;100.00
25430;BME280;13360;48.152;-1.788;2022-08-23T08:21:44;103455.63;;;23.14;100.00
25430;BME280;13360;48.152;-1.788;2022-08-23T08:24:11;103442.69;;;23.13;100.00
25430;BME280;13360;48.152;-1.788;2022-08-23T08:26:38;103406.13;;;23.07;100.00
25430;BME280;13360;48.152;-1.788;2022-08-23T08:29:04;103393.31;;;23.01;100.00
25430;BME280;13360;48.152;-1.788;2022-08-23T08:31:29;103381.00;;;22.97;100.00
25430;BME280;13360;48.152;-1.788;2022-08-23T08:33:55;103387.81;;;22.96;100.00
25430;BME280;13360;48.152;-1.788;2022-08-23T08:36:32;103388.44;;;22.93;100.00
25430;BME280;13360;48.152;-1.788;2022-08-23T08:39:01;103385.13;;;22.91;100.00
25430;BME280;13360;48.152;-1.788;2022-08-23T08:47:39;103379.88;;;22.98;100.00
25430;BME280;13360;48.152;-1.788;2022-08-23T08:50:18;103379.22;;;23.01;100.00
25430;BME280;13360;48.152;-1.788;2022-08-23T08:52:48;103358.34;;;23.02;100.00
25430;BME280;13360;48.152;-1.788;2022-08-23T08:55:23;103343.09;;;23.03;100.00
25430;BME280;13360;48.152;-1.788;2022-08-23T08:57:51;103339.25;;;22.99;100.00
25430;BME280;13360;48.152;-1.788;2022-08-23T09:00:31;103332.78;;;22.99;100.00
25430;BME280;13360;48.152;-1.788;2022-08-23T09:02:59;103329.78;;;22.95;100.00
25430;BME280;13360;48.152;-1.788;2022-08-23T09:05:30;103321.63;;;22.94;100.00
25430;BME280;13360;48.152;-1.788;2022-08-23T09:11:15;103320.41;;;22.86;100.00
25430;BME280;13360;48.152;-1.788;2022-08-23T09:18:44;103340.84;;;22.78;100.00
25430;BME280;13360;48.152;-1.788;2022-08-23T09:21:10;103371.66;;;22.74;100.00
25430;BME280;13360;48.152;-1.788;2022-08-23T09:23:43;103409.13;;;22.75;100.00
25430;BME280;13360;48.152;-1.788;2022-08-23T09:26:25;103487.38;;;22.78;100.00
25430;BME280;13360;48.152;-1.788;2022-08-23T09:29:24;103543.09;;;22.81;100.00
25430;BME280;13360;48.152;-1.788;2022-08-23T09:31:51;103584.47;;;22.86;100.00
25430;BME280;13360;48.152;-1.788;2022-08-23T09:34:20;103630.31;;;22.91;100.00
25430;BME280;13360;48.152;-1.788;2022-08-23T09:36:46;103653.91;;;22.95;100.00
25430;BME280;13360;48.152;-1.788;2022-08-23T09:39:31;103658.28;;;23.01;100.00
25430;BME280;13360;48.152;-1.788;2022-08-23T09:41:58;103673.53;;;23.14;100.00
25430;BME280;13360;48.152;-1.788;2022-08-23T09:44:44;103634.06;;;23.14;100.00
25430;BME280;13360;48.152;-1.788;2022-08-23T09:47:12;103587.63;;;23.11;100.00
25430;BME280;13360;48.152;-1.788;2022-08-23T09:49:40;103563.47;;;23.05;100.00
25430;BME280;13360;48.152;-1.788;2022-08-23T09:52:20;103593.44;;;23.01;100.00
25430;BME280;13360;48.152;-1.788;2022-08-23T09:54:55;103612.13;;;22.97;100.00
25430;BME280;13360;48.152;-1.788;2022-08-23T09:57:26;103639.81;;;22.95;100.00
25430;BME280;13360;48.152;-1.788;2022-08-23T09:59:53;103646.91;;;22.93;100.00
25430;BME280;13360;48.152;-1.788;2022-08-23T10:02:31;103677.81;;;22.98;100.00
25430;BME280;13360;48.152;-1.788;2022-08-23T10:05:06;103687.81;;;23.04;100.00
25430;BME280;13360;48.152;-1.788;2022-08-23T10:07:43;103700.66;;;23.10;100.00
25430;BME280;13360;48.152;-1.788;2022-08-23T10:13:13;103727.00;;;23.19;100.00
25430;BME280;13360;48.152;-1.788;2022-08-23T10:21:10;103692.63;;;23.31;100.00
25430;BME280;13360;48.152;-1.788;2022-08-23T10:26:19;103617.75;;;23.25;100.00
25430;BME280;13360;48.152;-1.788;2022-08-23T10:31:57;103613.16;;;23.29;100.00
25430;BME280;13360;48.152;-1.788;2022-08-23T10:40:17;103524.50;;;23.35;100.00
25430;BME280;13360;48.152;-1.788;2022-08-23T10:45:26;103451.78;;;23.32;100.00
25430;BME280;13360;48.152;-1.788;2022-08-23T10:50:45;103418.19;;;23.22;100.00
25430;BME280;13360;48.152;-1.788;2022-08-23T10:53:15;103419.88;;;23.23;100.00
25430;BME280;13360;48.152;-1.788;2022-08-23T10:56:01;103397.31;;;23.23;100.00
25430;BME280;13360;48.152;-1.788;2022-08-23T11:01:07;103404.25;;;23.39;100.00
25430;BME280;13360;48.152;-1.788;2022-08-23T11:03:49;103374.09;;;23.48;100.00
25430;BME280;13360;48.152;-1.788;2022-08-23T11:09:02;103247.06;;;23.53;100.00
25430;BME280;13360;48.152;-1.788;2022-08-23T11:14:12;103198.22;;;23.53;100.00
25430;BME280;13360;48.152;-1.788;2022-08-23T11:16:55;103180.81;;;23.51;100.00
25430;BME280;13360;48.152;-1.788;2022-08-23T11:22:32;103141.31;;;23.51;100.00
25430;BME280;13360;48.152;-1.788;2022-08-23T11:25:43;103126.88;;;23.52;100.00
25430;BME280;13360;48.152;-1.788;2022-08-23T11:27:44;103113.94;;;23.51;100.00
25430;BME280;13360;48.152;-1.788;2022-08-23T11:35:52;103076.59;;;23.46;100.00
25430;BME280;13360;48.152;-1.788;2022-08-23T11:43:42;103062.84;;;23.44;100.00
25430;BME280;13360;48.152;-1.788;2022-08-23T11:49:14;103044.59;;;23.50;100.00
25430;BME280;13360;48.152;-1.788;2022-08-23T12:00:26;102959.03;;;23.63;100.00
25430;BME280;13360;48.152;-1.788;2022-08-23T12:03:01;102943.56;;;23.69;100.00
25430;BME280;13360;48.152;-1.788;2022-08-23T12:18:41;102818.44;;;23.74;100.00
25430;BME280;13360;48.152;-1.788;2022-08-23T12:21:08;102815.09;;;23.72;100.00
25430;BME280;13360;48.152;-1.788;2022-08-23T12:23:46;102789.56;;;23.68;100.00
25430;BME280;13360;48.152;-1.788;2022-08-23T12:26:28;102790.53;;;23.72;100.00
25430;BME280;13360;48.152;-1.788;2022-08-23T12:29:02;102799.53;;;23.75;100.00
25430;BME280;13360;48.152;-1.788;2022-08-23T12:39:55;102725.09;;;23.88;100.00
25430;BME280;13360;48.152;-1.788;2022-08-23T12:45:20;102686.84;;;23.99;100.00
25430;BME280;13360;48.152;-1.788;2022-08-23T12:47:59;102629.75;;;23.93;100.00
25430;BME280;13360;48.152;-1.788;2022-08-23T12:50:35;102596.59;;;23.90;100.00
25430;BME280;13360;48.152;-1.788;2022-08-23T12:53:08;102592.91;;;23.98;100.00
25430;BME280;13360;48.152;-1.788;2022-08-23T12:55:37;102599.97;;;24.05;100.00
25430;BME280;13360;48.152;-1.788;2022-08-23T12:58:05;102619.88;;;24.08;100.00
25430;BME280;13360;48.152;-1.788;2022-08-23T13:00:40;102613.75;;;24.06;100.00
25430;BME280;13360;48.152;-1.788;2022-08-23T13:05:42;102544.50;;;23.88;100.00
25430;BME280;13360;48.152;-1.788;2022-08-23T13:08:24;102551.56;;;23.94;100.00
25430;BME280;13360;48.152;-1.788;2022-08-23T13:10:50;102571.84;;;23.96;100.00
25430;BME280;13360;48.152;-1.788;2022-08-23T13:13:20;102590.75;;;23.95;100.00
25430;BME280;13360;48.152;-1.788;2022-08-23T13:15:52;102612.00;;;23.93;100.00
25430;BME280;13360;48.152;-1.788;2022-08-23T13:18:30;102623.97;;;23.90;100.00
25430;BME280;13360;48.152;-1.788;2022-08-23T13:23:40;102550.09;;;23.76;100.00
25430;BME280;13360;48.152;-1.788;2022-08-23T13:26:43;102560.34;;;23.80;100.00
25430;BME280;13360;48.152;-1.788;2022-08-23T13:34:42;102521.22;;;23.91;100.00
25430;BME280;13360;48.152;-1.788;2022-08-23T13:37:19;102530.31;;;23.96;100.00
25430;BME280;13360;48.152;-1.788;2022-08-23T13:39:52;102518.34;;;23.99;100.00
25430;BME280;13360;48.152;-1.788;2022-08-23T13:42:34;102555.16;;;24.03;100.00
25430;BME280;13360;48.152;-1.788;2022-08-23T13:45:15;102503.19;;;24.04;100.00
25430;BME280;13360;48.152;-1.788;2022-08-23T13:47:48;102484.59;;;24.03;100.00
25430;BME280;13360;48.152;-1.788;2022-08-23T13:50:23;102517.78;;;24.06;100.00
25430;BME280;13360;48.152;-1.788;2022-08-23T13:52:49;102503.53;;;24.02;100.00
25430;BME280;13360;48.152;-1.788;2022-08-23T13:55:15;102493.06;;;24.03;100.00
25430;BME280;13360;48.152;-1.788;2022-08-23T13:57:41;102531.63;;;23.99;100.00
25430;BME280;13360;48.152;-1.788;2022-08-23T14:00:07;102541.97;;;23.95;100.00
25430;BME280;13360;48.152;-1.788;2022-08-23T14:02:34;102501.81;;;23.89;100.00
25430;BME280;13360;48.152;-1.788;2022-08-23T14:05:00;102464.88;;;23.82;100.00
25430;BME280;13360;48.152;-1.788;2022-08-23T14:07:25;102485.22;;;23.88;100.00
25430;BME280;13360;48.152;-1.788;2022-08-23T14:09:51;102520.41;;;23.90;100.00
25430;BME280;13360;48.152;-1.788;2022-08-23T14:12:19;102526.88;;;23.91;100.00
25430;BME280;13360;48.152;-1.788;2022-08-23T14:14:46;102489.50;;;23.94;100.00
25430;BME280;13360;48.152;-1.788;2022-08-23T14:17:12;102465.25;;;23.93;100.00
25430;BME280;13360;48.152;-1.788;2022-08-23T14:19:38;102480.34;;;23.97;100.00
25430;BME280;13360;48.152;-1.788;2022-08-23T14:22:03;102500.25;;;24.00;100.00
25430;BME280;13360;48.152;-1.788;2022-08-23T14:24:29;102504.00;;;24.05;100.00
25430;BME280;13360;48.152;-1.788;2022-08-23T14:26:55;102480.03;;;24.11;100.00
25430;BME280;13360;48.152;-1.788;2022-08-23T14:29:21;102456.41;;;24.15;100.00